createdAt,value
2023-01-06T00:00:35.284Z,13.9
2023-01-06T00:01:34.350Z,13.1
2023-01-06T00:02:34.506Z,13.1
2023-01-06T00:03:34.743Z,13.7
2023-01-06T00:04:34.078Z,12.6
2023-01-06T00:05:34.761Z,16.0
2023-01-06T00:06:34.506Z,14.3
2023-01-06T00:07:34.293Z,12.8
2023-01-06T00:08:34.843Z,14.3
2023-01-06T00:09:34.388Z,12.8
2023-01-06T00:10:35.004Z,12.1
2023-01-06T00:11:35.813Z,14.1
2023-01-06T00:12:34.316Z,12.8
2023-01-06T00:13:34.204Z,13.4
2023-01-06T00:14:34.426Z,14.0
2023-01-06T00:15:36.201Z,14.0
2023-01-06T00:16:34.772Z,15.0
2023-01-06T00:17:34.300Z,14.3
2023-01-06T00:18:34.096Z,13.1
2023-01-06T00:19:34.828Z,13.1
2023-01-06T00:20:34.685Z,13.6
2023-01-06T00:21:34.014Z,12.9
2023-01-06T00:22:34.747Z,12.6
2023-01-06T00:23:34.910Z,14.0
2023-01-06T00:24:34.360Z,14.5
2023-01-06T00:25:34.200Z,11.1
2023-01-06T00:26:34.067Z,13.3
2023-01-06T00:27:34.814Z,12.7
2023-01-06T00:28:35.472Z,14.7
2023-01-06T00:29:34.792Z,14.4
2023-01-06T00:30:35.992Z,13.7
2023-01-06T00:31:36.019Z,12.3
2023-01-06T00:32:34.402Z,13.7
2023-01-06T00:33:34.806Z,14.8
2023-01-06T00:34:34.220Z,12.3
2023-01-06T00:35:34.526Z,13.8
2023-01-06T00:36:34.307Z,13.8
2023-01-06T00:37:34.195Z,13.3
2023-01-06T00:38:34.535Z,13.2
2023-01-06T00:39:34.468Z,13.2
2023-01-06T00:40:35.249Z,15.1
2023-01-06T00:41:34.731Z,13.6
2023-01-06T00:42:34.108Z,16.7
2023-01-06T00:43:34.291Z,13.8
2023-01-06T00:44:37.565Z,13.2
2023-01-06T00:45:34.436Z,13.9
2023-01-06T00:46:34.330Z,13.1
2023-01-06T00:47:34.033Z,15.0
2023-01-06T00:48:34.764Z,13.7
2023-01-06T00:49:34.605Z,11.5
2023-01-06T00:50:34.419Z,13.7
2023-01-06T00:51:35.289Z,12.7
2023-01-06T00:52:34.028Z,11.6
2023-01-06T00:53:34.693Z,14.5
2023-01-06T00:54:34.533Z,12.7
2023-01-06T00:55:34.727Z,13.2
2023-01-06T00:56:35.252Z,13.4
2023-01-06T00:57:34.544Z,12.6
2023-01-06T00:58:34.421Z,11.3
2023-01-06T00:59:34.347Z,12.1
2023-01-06T01:00:33.915Z,13.9
2023-01-06T01:01:35.111Z,14.6
2023-01-06T01:02:35.027Z,13.3
2023-01-06T01:03:35.248Z,12.6
2023-01-06T01:04:34.556Z,13.3
2023-01-06T01:05:34.358Z,12.3
2023-01-06T01:06:34.877Z,13.4
2023-01-06T01:07:34.409Z,11.4
2023-01-06T01:08:34.506Z,12.4
2023-01-06T01:09:33.961Z,12.5
2023-01-06T01:10:34.767Z,12.7
2023-01-06T01:11:34.468Z,13.6
2023-01-06T01:12:34.258Z,13.1
2023-01-06T01:13:34.437Z,12.8
2023-01-06T01:14:39.214Z,15.3
2023-01-06T01:15:34.238Z,12.4
2023-01-06T01:16:34.029Z,12.0
2023-01-06T01:17:34.276Z,12.6
2023-01-06T01:18:34.922Z,13.8
2023-01-06T01:19:34.220Z,14.0
2023-01-06T01:20:34.576Z,12.1
2023-01-06T01:21:34.338Z,14.2
2023-01-06T01:22:34.172Z,11.8
2023-01-06T01:23:34.062Z,12.9
2023-01-06T01:24:34.344Z,12.7
2023-01-06T01:25:34.067Z,13.2
2023-01-06T01:26:34.300Z,13.6
2023-01-06T01:27:34.122Z,13.0
2023-01-06T01:28:33.950Z,14.4
2023-01-06T01:29:34.217Z,13.5
2023-01-06T01:30:34.065Z,12.4
2023-01-06T01:31:34.943Z,11.8
2023-01-06T01:32:34.593Z,15.0
2023-01-06T01:33:34.414Z,11.8
2023-01-06T01:34:34.738Z,12.9
2023-01-06T01:35:34.038Z,12.0
2023-01-06T01:36:34.240Z,12.2
2023-01-06T01:37:34.026Z,11.6
2023-01-06T01:38:34.676Z,12.9
2023-01-06T01:39:34.488Z,12.6
2023-01-06T01:40:34.334Z,13.7
2023-01-06T01:41:34.220Z,12.3
2023-01-06T01:42:33.941Z,13.4
2023-01-06T01:43:47.486Z,13.9
2023-01-06T01:44:56.991Z,12.3
2023-01-06T01:45:34.429Z,12.8
2023-01-06T01:46:37.081Z,11.7
2023-01-06T01:47:36.532Z,11.5
2023-01-06T01:48:34.923Z,13.0
2023-01-06T01:49:35.950Z,12.7
2023-01-06T01:50:39.185Z,12.4
2023-01-06T01:51:41.957Z,13.4
2023-01-06T01:52:34.626Z,11.6
2023-01-06T01:53:38.687Z,12.9
2023-01-06T01:54:34.424Z,12.3
2023-01-06T01:55:35.646Z,12.0
2023-01-06T01:56:35.146Z,11.8
2023-01-06T01:57:36.298Z,11.6
2023-01-06T01:58:37.649Z,14.6
2023-01-06T01:59:35.999Z,11.4
2023-01-06T02:00:35.003Z,13.5
2023-01-06T02:01:34.884Z,12.5
2023-01-06T02:02:35.153Z,13.2
2023-01-06T02:03:34.719Z,12.0
2023-01-06T02:04:35.700Z,14.3
2023-01-06T02:05:37.342Z,11.8
2023-01-06T02:06:34.706Z,11.7
2023-01-06T02:07:34.269Z,12.0
2023-01-06T02:08:35.987Z,11.9
2023-01-06T02:09:41.777Z,12.3
2023-01-06T02:10:34.120Z,12.0
2023-01-06T02:11:35.176Z,13.0
2023-01-06T02:12:34.410Z,11.6
2023-01-06T02:13:35.661Z,12.0
2023-01-06T02:14:34.319Z,13.8
2023-01-06T02:15:34.549Z,12.1
2023-01-06T02:16:41.987Z,12.3
2023-01-06T02:17:47.983Z,10.5
2023-01-06T02:18:47.985Z,12.0
2023-01-06T02:19:39.583Z,11.2
2023-01-06T02:20:48.458Z,13.5
2023-01-06T02:21:39.625Z,12.8
2023-01-06T02:22:44.478Z,13.3
2023-01-06T02:23:39.648Z,11.6
2023-01-06T02:24:48.456Z,10.5
2023-01-06T02:25:41.964Z,9.2
2023-01-06T02:26:52.429Z,10.8
2023-01-06T02:27:53.473Z,12.4
2023-01-06T02:28:42.509Z,12.0
2023-01-06T02:29:52.426Z,12.2
2023-01-06T02:30:52.462Z,11.3
2023-01-06T02:31:52.465Z,12.4
2023-01-06T02:32:47.506Z,12.8
2023-01-06T02:33:40.416Z,11.8
2023-01-06T02:34:37.682Z,12.2
2023-01-06T02:35:42.482Z,13.1
2023-01-06T02:36:44.668Z,13.2
2023-01-06T02:37:44.967Z,11.1
2023-01-06T02:38:39.085Z,11.3
2023-01-06T02:39:38.902Z,11.4
2023-01-06T02:40:54.456Z,11.7
2023-01-06T02:41:47.331Z,12.0
2023-01-06T02:42:47.982Z,12.0
2023-01-06T02:43:39.053Z,10.9
2023-01-06T02:44:53.539Z,12.5
2023-01-06T02:45:52.985Z,14.2
2023-01-06T02:46:48.017Z,12.5
2023-01-06T02:47:45.065Z,12.2
2023-01-06T02:48:48.029Z,11.5
2023-01-06T02:49:38.860Z,12.2
2023-01-06T02:50:42.512Z,13.1
2023-01-06T02:51:50.195Z,13.4
2023-01-06T02:52:45.518Z,12.9
2023-01-06T02:53:47.517Z,12.7
2023-01-06T02:54:41.879Z,12.1
2023-01-06T02:55:47.920Z,12.0
2023-01-06T02:56:37.277Z,11.2
2023-01-06T02:57:39.532Z,11.0
2023-01-06T02:58:48.016Z,12.1
2023-01-06T02:59:40.726Z,11.8
2023-01-06T03:00:35.851Z,11.1
2023-01-06T03:01:37.226Z,11.2
2023-01-06T03:02:36.315Z,11.0
2023-01-06T03:03:36.378Z,11.1
2023-01-06T03:04:39.453Z,13.2
2023-01-06T03:05:35.143Z,11.2
2023-01-06T03:06:34.892Z,11.5
2023-01-06T03:07:35.795Z,10.0
2023-01-06T03:08:35.252Z,10.9
2023-01-06T03:09:35.906Z,11.6
2023-01-06T03:10:35.466Z,11.9
2023-01-06T03:11:34.122Z,12.6
2023-01-06T03:12:39.673Z,11.3
2023-01-06T03:13:39.269Z,11.1
2023-01-06T03:14:36.911Z,10.6
2023-01-06T03:15:34.428Z,10.3
2023-01-06T03:16:34.351Z,12.5
2023-01-06T03:17:34.590Z,13.2
2023-01-06T03:18:35.264Z,10.8
2023-01-06T03:19:34.736Z,11.6
2023-01-06T03:20:34.590Z,11.2
2023-01-06T03:21:37.083Z,11.0
2023-01-06T03:22:35.390Z,12.0
2023-01-06T03:23:34.954Z,11.7
2023-01-06T03:24:34.923Z,10.1
2023-01-06T03:25:36.599Z,11.0
2023-01-06T03:26:34.852Z,11.9
2023-01-06T03:27:34.072Z,11.1
2023-01-06T03:28:34.918Z,11.1
2023-01-06T03:29:35.359Z,11.2
2023-01-06T03:30:38.827Z,10.9
2023-01-06T03:31:42.080Z,11.4
2023-01-06T03:32:44.535Z,11.8
2023-01-06T03:33:42.562Z,12.1
2023-01-06T03:34:39.388Z,9.7
2023-01-06T03:35:41.502Z,11.3
2023-01-06T03:36:42.084Z,10.2
2023-01-06T03:37:43.857Z,11.4
2023-01-06T03:38:45.579Z,11.0
2023-01-06T03:39:48.003Z,10.4
2023-01-06T03:40:39.154Z,12.3
2023-01-06T03:41:36.858Z,10.5
2023-01-06T03:42:36.843Z,10.6
2023-01-06T03:43:48.543Z,10.5
2023-01-06T03:44:39.338Z,10.7
2023-01-06T03:45:39.215Z,10.9
2023-01-06T03:46:37.631Z,10.2
2023-01-06T03:47:50.517Z,11.6
2023-01-06T03:48:45.031Z,10.2
2023-01-06T03:49:39.188Z,10.5
2023-01-06T03:50:44.303Z,10.8
2023-01-06T03:51:45.018Z,13.0
2023-01-06T03:52:36.454Z,10.2
2023-01-06T03:53:49.424Z,10.8
2023-01-06T03:54:40.066Z,10.2
2023-01-06T03:55:35.727Z,11.6
2023-01-06T03:56:37.996Z,11.6
2023-01-06T03:57:36.454Z,10.8
2023-01-06T03:58:35.152Z,11.9
2023-01-06T03:59:38.799Z,10.8
2023-01-06T04:00:36.020Z,10.4
2023-01-06T04:01:35.700Z,10.4
2023-01-06T04:02:36.242Z,10.6
2023-01-06T04:03:34.597Z,10.8
2023-01-06T04:04:35.431Z,11.0
2023-01-06T04:05:34.218Z,10.1
2023-01-06T04:06:34.159Z,11.1
2023-01-06T04:07:34.829Z,10.1
2023-01-06T04:08:34.536Z,10.8
2023-01-06T04:09:34.365Z,11.0
2023-01-06T04:10:34.130Z,10.6
2023-01-06T04:11:34.044Z,9.1
2023-01-06T04:12:34.189Z,11.3
2023-01-06T04:13:34.021Z,9.6
2023-01-06T04:14:34.744Z,10.4
2023-01-06T04:15:34.727Z,9.2
2023-01-06T04:16:34.952Z,10.9
2023-01-06T04:17:34.805Z,10.1
2023-01-06T04:18:34.470Z,9.9
2023-01-06T04:19:34.315Z,9.6
2023-01-06T04:20:34.132Z,9.9
2023-01-06T04:21:34.022Z,9.9
2023-01-06T04:22:34.242Z,12.0
2023-01-06T04:23:34.016Z,10.0
2023-01-06T04:24:34.669Z,11.6
2023-01-06T04:25:34.490Z,8.9
2023-01-06T04:26:34.355Z,11.7
2023-01-06T04:27:34.140Z,11.0
2023-01-06T04:28:33.973Z,11.6
2023-01-06T04:29:34.711Z,10.6
2023-01-06T04:30:34.033Z,11.1
2023-01-06T04:31:35.625Z,12.2
2023-01-06T04:32:34.344Z,11.4
2023-01-06T04:33:34.399Z,9.9
2023-01-06T04:34:34.176Z,11.3
2023-01-06T04:35:34.435Z,10.1
2023-01-06T04:36:34.237Z,11.4
2023-01-06T04:37:34.764Z,11.0
2023-01-06T04:38:33.898Z,11.5
2023-01-06T04:39:34.793Z,9.0
2023-01-06T04:40:34.025Z,9.7
2023-01-06T04:41:34.143Z,11.5
2023-01-06T04:42:34.027Z,8.5
2023-01-06T04:43:34.822Z,9.5
2023-01-06T04:44:34.494Z,9.4
2023-01-06T04:45:34.420Z,9.4
2023-01-06T04:46:34.199Z,9.4
2023-01-06T04:47:33.977Z,10.6
2023-01-06T04:48:34.754Z,10.3
2023-01-06T04:49:34.539Z,9.8
2023-01-06T04:50:34.554Z,9.6
2023-01-06T04:51:34.168Z,10.4
2023-01-06T04:52:34.023Z,9.5
2023-01-06T04:53:38.837Z,9.8
2023-01-06T04:54:34.808Z,8.8
2023-01-06T04:55:36.850Z,11.2
2023-01-06T04:56:34.464Z,9.8
2023-01-06T04:57:34.347Z,11.7
2023-01-06T04:58:34.217Z,9.7
2023-01-06T04:59:34.057Z,10.1
2023-01-06T05:00:34.757Z,9.6
2023-01-06T05:01:34.645Z,9.8
2023-01-06T05:02:34.314Z,8.8
2023-01-06T05:03:34.419Z,9.5
2023-01-06T05:04:43.382Z,9.1
2023-01-06T05:05:34.641Z,8.7
2023-01-06T05:06:34.424Z,10.9
2023-01-06T05:07:34.714Z,10.9
2023-01-06T05:08:34.152Z,9.6
2023-01-06T05:09:33.934Z,10.6
2023-01-06T05:10:34.576Z,9.7
2023-01-06T05:11:33.968Z,9.1
2023-01-06T05:12:34.696Z,9.9
2023-01-06T05:13:34.940Z,8.5
2023-01-06T05:14:34.298Z,10.6
2023-01-06T05:15:34.090Z,9.0
2023-01-06T05:16:34.544Z,9.3
2023-01-06T05:17:34.668Z,9.2
2023-01-06T05:18:34.860Z,7.5
2023-01-06T05:19:34.302Z,8.6
2023-01-06T05:20:34.136Z,8.0
2023-01-06T05:21:33.903Z,9.8
2023-01-06T05:22:34.589Z,9.9
2023-01-06T05:23:35.259Z,9.5
2023-01-06T05:24:34.662Z,8.7
2023-01-06T05:25:34.559Z,9.1
2023-01-06T05:26:34.287Z,8.2
2023-01-06T05:27:34.599Z,11.8
2023-01-06T05:28:34.423Z,10.0
2023-01-06T05:29:34.415Z,9.1
2023-01-06T05:30:34.034Z,9.9
2023-01-06T05:31:34.861Z,10.1
2023-01-06T05:32:34.557Z,9.4
2023-01-06T05:33:34.424Z,8.4
2023-01-06T05:34:34.193Z,9.8
2023-01-06T05:35:34.023Z,9.9
2023-01-06T05:36:34.751Z,11.2
2023-01-06T05:37:34.490Z,9.6
2023-01-06T05:38:34.502Z,9.4
2023-01-06T05:39:34.138Z,8.0
2023-01-06T05:40:34.419Z,8.9
2023-01-06T05:41:34.609Z,9.9
2023-01-06T05:42:34.071Z,9.4
2023-01-06T05:43:35.152Z,9.3
2023-01-06T05:44:34.491Z,9.5
2023-01-06T05:45:35.909Z,9.6
2023-01-06T05:46:34.134Z,10.1
2023-01-06T05:47:34.029Z,10.3
2023-01-06T05:48:35.189Z,9.6
2023-01-06T05:49:34.582Z,7.9
2023-01-06T05:50:34.367Z,8.1
2023-01-06T05:51:34.146Z,8.9
2023-01-06T05:52:34.437Z,9.8
2023-01-06T05:53:34.948Z,8.6
2023-01-06T05:54:34.035Z,8.8
2023-01-06T05:55:34.268Z,10.3
2023-01-06T05:56:34.194Z,9.7
2023-01-06T05:57:34.596Z,9.0
2023-01-06T05:58:34.706Z,9.9
2023-01-06T05:59:34.402Z,7.8
2023-01-06T06:00:34.676Z,10.0
2023-01-06T06:01:34.548Z,8.4
2023-01-06T06:02:34.277Z,8.2
2023-01-06T06:03:34.150Z,9.0
2023-01-06T06:04:33.859Z,8.9
2023-01-06T06:05:34.611Z,8.2
2023-01-06T06:06:34.435Z,9.2
2023-01-06T06:07:34.294Z,9.7
2023-01-06T06:08:34.107Z,11.3
2023-01-06T06:09:33.885Z,8.7
2023-01-06T06:10:34.182Z,9.3
2023-01-06T06:11:34.007Z,7.4
2023-01-06T06:12:35.269Z,8.9
2023-01-06T06:13:34.530Z,7.7
2023-01-06T06:14:34.285Z,8.9
2023-01-06T06:15:34.129Z,8.4
2023-01-06T06:16:34.055Z,7.4
2023-01-06T06:17:34.149Z,9.9
2023-01-06T06:18:34.329Z,8.8
2023-01-06T06:19:34.679Z,8.1
2023-01-06T06:20:34.545Z,9.0
2023-01-06T06:21:34.336Z,6.8
2023-01-06T06:22:34.226Z,7.9
2023-01-06T06:23:34.395Z,9.1
2023-01-06T06:24:34.623Z,7.8
2023-01-06T06:25:34.435Z,7.7
2023-01-06T06:26:34.318Z,8.9
2023-01-06T06:27:34.054Z,8.5
2023-01-06T06:28:34.851Z,8.1
2023-01-06T06:29:34.769Z,8.7
2023-01-06T06:30:33.924Z,9.5
2023-01-06T06:31:34.757Z,8.6
2023-01-06T06:32:34.604Z,8.4
2023-01-06T06:33:34.563Z,7.7
2023-01-06T06:34:34.158Z,9.9
2023-01-06T06:35:34.350Z,8.5
2023-01-06T06:36:34.599Z,9.5
2023-01-06T06:37:33.979Z,8.1
2023-01-06T06:38:34.671Z,8.4
2023-01-06T06:39:34.535Z,7.6
2023-01-06T06:40:34.369Z,9.2
2023-01-06T06:41:34.206Z,8.2
2023-01-06T06:42:33.939Z,7.8
2023-01-06T06:43:34.679Z,7.0
2023-01-06T06:44:34.419Z,7.7
2023-01-06T06:45:34.284Z,7.2
2023-01-06T06:46:34.295Z,7.3
2023-01-06T06:47:33.845Z,7.5
2023-01-06T06:48:34.667Z,8.0
2023-01-06T06:49:34.356Z,8.5
2023-01-06T06:50:34.287Z,7.9
2023-01-06T06:51:34.080Z,9.2
2023-01-06T06:52:34.407Z,8.3
2023-01-06T06:53:34.390Z,8.3
2023-01-06T06:54:33.910Z,8.6
2023-01-06T06:55:34.625Z,7.5
2023-01-06T06:56:34.428Z,7.0
2023-01-06T06:57:34.301Z,7.7
2023-01-06T06:58:34.818Z,8.7
2023-01-06T06:59:34.784Z,7.0
2023-01-06T07:00:34.583Z,7.5
2023-01-06T07:01:34.091Z,9.0
2023-01-06T07:02:34.768Z,7.3
2023-01-06T07:03:34.002Z,9.3
2023-01-06T07:04:34.765Z,7.4
2023-01-06T07:05:34.067Z,8.1
2023-01-06T07:06:34.834Z,8.5
2023-01-06T07:07:34.610Z,7.5
2023-01-06T07:08:34.704Z,6.9
2023-01-06T07:09:34.382Z,6.7
2023-01-06T07:10:34.168Z,8.4
2023-01-06T07:11:33.874Z,7.0
2023-01-06T07:12:34.527Z,7.5
2023-01-06T07:13:34.393Z,8.4
2023-01-06T07:14:34.207Z,7.3
2023-01-06T07:15:34.116Z,8.3
2023-01-06T07:16:34.809Z,7.3
2023-01-06T07:17:34.550Z,7.6
2023-01-06T07:18:34.454Z,8.8
2023-01-06T07:19:34.266Z,6.5
2023-01-06T07:20:34.730Z,8.2
2023-01-06T07:21:34.743Z,7.0
2023-01-06T07:22:38.084Z,6.8
2023-01-06T07:23:34.350Z,7.3
2023-01-06T07:24:34.181Z,7.7
2023-01-06T07:25:34.345Z,8.4
2023-01-06T07:26:34.246Z,6.3
2023-01-06T07:27:34.493Z,7.8
2023-01-06T07:28:34.755Z,6.9
2023-01-06T07:29:34.758Z,7.7
2023-01-06T07:30:34.879Z,7.3
2023-01-06T07:31:34.350Z,8.4
2023-01-06T07:32:34.032Z,8.4
2023-01-06T07:33:34.680Z,6.6
2023-01-06T07:34:34.930Z,7.1
2023-01-06T07:35:34.517Z,6.5
2023-01-06T07:36:34.162Z,6.5
2023-01-06T07:37:33.938Z,6.6
2023-01-06T07:38:34.961Z,6.3
2023-01-06T07:39:34.538Z,7.3
2023-01-06T07:40:35.232Z,6.4
2023-01-06T07:41:34.176Z,7.3
2023-01-06T07:42:36.593Z,7.1
2023-01-06T07:43:34.702Z,6.4
2023-01-06T07:44:34.678Z,7.0
2023-01-06T07:45:34.436Z,8.1
2023-01-06T07:46:34.195Z,6.3
2023-01-06T07:47:34.004Z,7.1
2023-01-06T07:48:34.729Z,8.0
2023-01-06T07:49:34.549Z,7.0
2023-01-06T07:50:34.403Z,6.9
2023-01-06T07:51:34.263Z,6.7
2023-01-06T07:52:34.000Z,8.8
2023-01-06T07:53:34.676Z,8.4
2023-01-06T07:54:34.536Z,7.6
2023-01-06T07:55:34.352Z,6.6
2023-01-06T07:56:34.181Z,7.9
2023-01-06T07:57:34.871Z,7.0
2023-01-06T07:58:34.700Z,6.6
2023-01-06T07:59:34.049Z,7.5
2023-01-06T08:00:34.677Z,7.4
2023-01-06T08:01:34.233Z,7.7
2023-01-06T08:02:34.227Z,8.8
2023-01-06T08:03:34.742Z,6.1
2023-01-06T08:04:34.467Z,6.5
2023-01-06T08:05:37.928Z,6.9
2023-01-06T08:06:34.093Z,6.3
2023-01-06T08:07:34.053Z,6.8
2023-01-06T08:08:38.318Z,7.3
2023-01-06T08:09:34.456Z,6.8
2023-01-06T08:10:34.484Z,6.3
2023-01-06T08:11:34.152Z,7.6
2023-01-06T08:12:33.924Z,6.6
2023-01-06T08:13:35.689Z,7.9
2023-01-06T08:14:34.474Z,6.8
2023-01-06T08:15:35.306Z,8.0
2023-01-06T08:16:34.457Z,7.4
2023-01-06T08:17:34.314Z,6.4
2023-01-06T08:18:34.573Z,6.6
2023-01-06T08:19:34.009Z,6.9
2023-01-06T08:20:34.673Z,5.4
2023-01-06T08:21:34.481Z,6.4
2023-01-06T08:22:34.303Z,5.9
2023-01-06T08:23:34.509Z,7.7
2023-01-06T08:24:33.956Z,6.0
2023-01-06T08:25:34.641Z,7.5
2023-01-06T08:26:34.497Z,6.6
2023-01-06T08:27:34.404Z,7.5
2023-01-06T08:28:34.504Z,6.7
2023-01-06T08:29:34.024Z,8.0
2023-01-06T08:30:34.621Z,6.6
2023-01-06T08:31:34.526Z,6.1
2023-01-06T08:32:34.300Z,6.0
2023-01-06T08:33:34.050Z,6.4
2023-01-06T08:34:33.978Z,7.0
2023-01-06T08:35:34.679Z,7.4
2023-01-06T08:36:34.475Z,6.7
2023-01-06T08:37:35.033Z,7.2
2023-01-06T08:38:34.727Z,5.6
2023-01-06T08:39:34.041Z,6.7
2023-01-06T08:40:34.639Z,7.3
2023-01-06T08:41:34.432Z,6.6
2023-01-06T08:42:34.240Z,7.3
2023-01-06T08:43:34.300Z,6.5
2023-01-06T08:44:34.013Z,6.5
2023-01-06T08:45:37.492Z,7.5
2023-01-06T08:46:34.591Z,6.3
2023-01-06T08:47:34.392Z,6.1
2023-01-06T08:48:34.320Z,7.2
2023-01-06T08:49:33.916Z,7.2
2023-01-06T08:50:34.701Z,5.7
2023-01-06T08:51:34.418Z,7.2
2023-01-06T08:52:34.245Z,6.1
2023-01-06T08:53:34.086Z,7.9
2023-01-06T08:54:33.969Z,7.7
2023-01-06T08:55:37.349Z,7.2
2023-01-06T08:56:34.447Z,7.3
2023-01-06T08:57:34.339Z,8.3
2023-01-06T08:58:34.075Z,7.7
2023-01-06T08:59:34.150Z,6.3
2023-01-06T09:00:35.237Z,7.0
2023-01-06T09:01:35.709Z,8.2
2023-01-06T09:02:34.222Z,7.4
2023-01-06T09:03:34.112Z,7.2
2023-01-06T09:04:34.889Z,6.3
2023-01-06T09:05:34.245Z,6.6
2023-01-06T09:06:34.155Z,7.5
2023-01-06T09:07:34.672Z,7.5
2023-01-06T09:08:34.498Z,6.6
2023-01-06T09:09:34.322Z,7.0
2023-01-06T09:10:37.581Z,6.5
2023-01-06T09:11:34.033Z,7.9
2023-01-06T09:12:34.635Z,7.0
2023-01-06T09:13:34.728Z,7.2
2023-01-06T09:14:34.299Z,6.0
2023-01-06T09:15:34.061Z,5.3
2023-01-06T09:16:33.900Z,6.0
2023-01-06T09:17:34.590Z,6.2
2023-01-06T09:18:34.510Z,6.5
2023-01-06T09:19:34.680Z,7.2
2023-01-06T09:20:34.943Z,7.1
2023-01-06T09:21:34.320Z,5.6
2023-01-06T09:22:34.146Z,6.8
2023-01-06T09:23:33.980Z,7.4
2023-01-06T09:24:34.619Z,6.4
2023-01-06T09:25:34.486Z,6.0
2023-01-06T09:26:34.323Z,6.5
2023-01-06T09:27:34.111Z,6.1
2023-01-06T09:28:33.959Z,6.8
2023-01-06T09:29:34.662Z,6.4
2023-01-06T09:30:34.493Z,6.9
2023-01-06T09:31:34.475Z,6.6
2023-01-06T09:32:34.082Z,6.7
2023-01-06T09:33:34.688Z,7.5
2023-01-06T09:34:34.148Z,6.9
2023-01-06T09:35:33.946Z,7.1
2023-01-06T09:36:34.736Z,7.8
2023-01-06T09:37:34.418Z,7.2
2023-01-06T09:38:34.371Z,5.6
2023-01-06T09:39:34.067Z,7.7
2023-01-06T09:40:38.773Z,7.2
2023-01-06T09:41:57.524Z,5.8
2023-01-06T09:42:47.981Z,6.3
2023-01-06T09:43:39.124Z,6.5
2023-01-06T09:44:48.108Z,6.1
2023-01-06T09:45:42.576Z,6.6
2023-01-06T09:46:36.343Z,6.8
2023-01-06T09:47:43.569Z,7.8
2023-01-06T09:48:38.705Z,6.8
2023-01-06T09:49:44.506Z,6.0
2023-01-06T09:50:40.579Z,7.0
2023-01-06T09:51:35.732Z,7.4
2023-01-06T09:52:47.984Z,10.0
2023-01-06T09:53:36.701Z,6.8
2023-01-06T09:54:38.880Z,8.2
2023-01-06T09:55:37.739Z,8.5
2023-01-06T09:56:35.552Z,6.7
2023-01-06T09:57:39.210Z,6.6
2023-01-06T09:58:39.185Z,7.6
2023-01-06T09:59:44.930Z,7.8
2023-01-06T10:00:42.105Z,8.1
2023-01-06T10:01:40.318Z,8.6
2023-01-06T10:02:36.046Z,7.1
2023-01-06T10:03:34.645Z,8.4
2023-01-06T10:04:34.368Z,7.7
2023-01-06T10:05:41.360Z,6.9
2023-01-06T10:06:42.473Z,7.6
2023-01-06T10:07:42.030Z,8.4
2023-01-06T10:08:39.794Z,7.4
2023-01-06T10:09:42.479Z,7.3
2023-01-06T10:10:38.993Z,8.9
2023-01-06T10:11:45.461Z,7.9
2023-01-06T10:12:41.994Z,7.4
2023-01-06T10:13:57.003Z,7.4
2023-01-06T10:14:47.997Z,7.0
2023-01-06T10:15:42.491Z,7.7
2023-01-06T10:16:48.499Z,6.6
2023-01-06T10:17:39.477Z,7.2
2023-01-06T10:18:56.992Z,6.6
2023-01-06T10:19:41.983Z,6.8
2023-01-06T10:20:52.897Z,7.7
2023-01-06T10:21:49.371Z,7.5
2023-01-06T10:22:52.410Z,7.2
2023-01-06T10:23:53.486Z,8.9
2023-01-06T10:24:44.965Z,7.0
2023-01-06T10:25:39.772Z,8.2
2023-01-06T10:26:44.547Z,8.6
2023-01-06T10:27:35.730Z,6.5
2023-01-06T10:28:35.385Z,8.5
2023-01-06T10:29:36.571Z,8.6
2023-01-06T10:30:43.843Z,12.0
2023-01-06T10:31:36.200Z,9.4
2023-01-06T10:32:35.718Z,9.6
2023-01-06T10:33:36.530Z,7.4
2023-01-06T10:34:34.261Z,5.9
2023-01-06T10:35:34.804Z,7.1
2023-01-06T10:36:39.846Z,9.1
2023-01-06T10:37:39.511Z,7.9
2023-01-06T10:38:36.752Z,7.9
2023-01-06T10:39:35.800Z,8.2
2023-01-06T10:40:34.329Z,8.3
2023-01-06T10:41:54.046Z,8.2
2023-01-06T10:42:41.610Z,8.7
2023-01-06T10:43:34.707Z,8.9
2023-01-06T10:44:34.882Z,9.3
2023-01-06T10:45:39.004Z,9.2
2023-01-06T10:46:34.906Z,8.2
2023-01-06T10:47:34.323Z,9.1
2023-01-06T10:48:34.469Z,8.9
2023-01-06T10:49:34.925Z,8.3
2023-01-06T10:50:34.689Z,9.3
2023-01-06T10:51:35.941Z,6.6
2023-01-06T10:52:34.583Z,9.9
2023-01-06T10:53:34.981Z,9.8
2023-01-06T10:54:34.985Z,8.8
2023-01-06T10:55:37.137Z,8.1
2023-01-06T10:56:34.868Z,8.9
2023-01-06T10:57:38.806Z,9.2
2023-01-06T10:58:41.738Z,8.7
2023-01-06T10:59:38.843Z,9.5
2023-01-06T11:00:34.764Z,9.0
2023-01-06T11:01:34.907Z,7.1
2023-01-06T11:02:34.827Z,7.7
2023-01-06T11:03:35.177Z,9.8
2023-01-06T11:04:34.144Z,8.4
2023-01-06T11:05:34.205Z,7.8
2023-01-06T11:06:34.073Z,7.6
2023-01-06T11:07:34.452Z,7.5
2023-01-06T11:08:35.161Z,8.4
2023-01-06T11:09:41.775Z,8.1
2023-01-06T11:10:41.985Z,8.0
2023-01-06T11:11:39.190Z,8.0
2023-01-06T11:12:34.092Z,9.5
2023-01-06T11:13:35.081Z,8.1
2023-01-06T11:14:35.580Z,7.7
2023-01-06T11:15:35.762Z,9.2
2023-01-06T11:16:35.436Z,7.7
2023-01-06T11:17:35.185Z,8.7
2023-01-06T11:18:35.074Z,10.0
2023-01-06T11:19:42.326Z,9.2
2023-01-06T11:20:33.996Z,8.3
2023-01-06T11:21:44.346Z,9.6
2023-01-06T11:22:36.089Z,7.8
2023-01-06T11:23:34.857Z,9.5
2023-01-06T11:24:38.973Z,9.9
2023-01-06T11:25:33.994Z,8.2
2023-01-06T11:26:39.484Z,10.4
2023-01-06T11:27:34.003Z,9.6
2023-01-06T11:28:34.690Z,8.7
2023-01-06T11:29:34.901Z,8.7
2023-01-06T11:30:38.383Z,8.2
2023-01-06T11:31:34.154Z,9.7
2023-01-06T11:32:33.954Z,7.5
2023-01-06T11:33:36.660Z,8.4
2023-01-06T11:34:34.494Z,9.1
2023-01-06T11:35:34.488Z,7.7
2023-01-06T11:36:34.138Z,7.5
2023-01-06T11:37:38.113Z,8.2
2023-01-06T11:38:41.606Z,8.6
2023-01-06T11:39:35.360Z,8.8
2023-01-06T11:40:36.478Z,9.9
2023-01-06T11:41:37.845Z,8.2
2023-01-06T11:42:34.358Z,8.7
2023-01-06T11:43:34.181Z,9.4
2023-01-06T11:44:35.125Z,8.7
2023-01-06T11:45:42.621Z,8.6
2023-01-06T11:46:35.234Z,8.4
2023-01-06T11:47:34.322Z,9.7
2023-01-06T11:48:36.067Z,7.5
2023-01-06T11:49:38.341Z,9.8
2023-01-06T11:50:34.200Z,7.7
2023-01-06T11:51:44.971Z,8.7
2023-01-06T11:52:35.311Z,7.5
2023-01-06T11:53:34.428Z,8.1
2023-01-06T11:54:37.698Z,8.8
2023-01-06T11:55:34.559Z,9.4
2023-01-06T11:56:34.387Z,8.7
2023-01-06T11:57:39.093Z,9.6
2023-01-06T11:58:41.477Z,8.6
2023-01-06T11:59:38.927Z,9.1
2023-01-06T12:00:44.517Z,9.0
2023-01-06T12:01:44.559Z,8.1
2023-01-06T12:02:39.656Z,8.0
2023-01-06T12:03:39.709Z,7.7
2023-01-06T12:04:39.202Z,7.6
2023-01-06T12:05:37.948Z,7.4
2023-01-06T12:06:39.379Z,9.6
2023-01-06T12:07:44.283Z,9.0
2023-01-06T12:08:45.731Z,8.4
2023-01-06T12:09:38.696Z,9.4
2023-01-06T12:10:35.223Z,9.0
2023-01-06T12:11:53.294Z,10.2
2023-01-06T12:12:34.088Z,9.2
2023-01-06T12:13:44.232Z,9.3
2023-01-06T12:14:35.352Z,9.4
2023-01-06T12:15:34.662Z,11.0
2023-01-06T12:16:37.368Z,8.6
2023-01-06T12:17:39.776Z,9.1
2023-01-06T12:18:34.842Z,7.6
2023-01-06T12:19:48.015Z,9.2
2023-01-06T12:20:37.874Z,8.2
2023-01-06T12:21:36.615Z,6.9
2023-01-06T12:22:42.075Z,7.5
2023-01-06T12:23:36.759Z,8.3
2023-01-06T12:24:34.628Z,7.9
2023-01-06T12:25:38.127Z,8.5
2023-01-06T12:26:35.744Z,7.5
2023-01-06T12:27:38.827Z,8.7
2023-01-06T12:28:38.822Z,9.1
2023-01-06T12:29:34.153Z,8.5
2023-01-06T12:30:38.670Z,7.6
2023-01-06T12:31:39.403Z,8.8
2023-01-06T12:32:37.952Z,9.4
2023-01-06T12:33:39.166Z,8.5
2023-01-06T12:34:35.857Z,8.5
2023-01-06T12:35:35.599Z,7.4
2023-01-06T12:36:40.438Z,7.9
2023-01-06T12:37:38.697Z,7.2
2023-01-06T12:38:39.141Z,9.1
2023-01-06T12:39:44.540Z,9.8
2023-01-06T12:40:43.195Z,7.7
2023-01-06T12:41:39.257Z,8.5
2023-01-06T12:42:41.983Z,8.9
2023-01-06T12:43:36.481Z,8.7
2023-01-06T12:44:38.840Z,8.4
2023-01-06T12:45:41.109Z,8.8
2023-01-06T12:46:40.383Z,8.4
2023-01-06T12:47:42.012Z,7.7
2023-01-06T12:48:55.842Z,8.0
2023-01-06T12:49:38.805Z,9.3
2023-01-06T12:50:44.405Z,8.2
2023-01-06T12:51:42.869Z,9.0
2023-01-06T12:52:37.478Z,8.0
2023-01-06T12:53:38.017Z,8.7
2023-01-06T12:54:34.360Z,7.4
2023-01-06T12:55:39.512Z,8.8
2023-01-06T12:56:45.032Z,9.2
2023-01-06T12:57:45.549Z,10.5
2023-01-06T12:58:41.812Z,8.2
2023-01-06T12:59:39.306Z,7.4
2023-01-06T13:00:39.050Z,8.2
2023-01-06T13:01:50.593Z,7.9
2023-01-06T13:02:52.997Z,9.1
2023-01-06T13:03:42.069Z,8.1
2023-01-06T13:04:52.947Z,7.9
2023-01-06T13:05:42.037Z,7.8
2023-01-06T13:06:51.045Z,8.2
2023-01-06T13:07:52.458Z,7.9
2023-01-06T13:08:56.517Z,8.1
2023-01-06T13:09:51.580Z,6.9
2023-01-06T13:10:41.113Z,6.6
2023-01-06T13:11:45.077Z,7.6
2023-01-06T13:12:39.077Z,8.0
2023-01-06T13:13:45.040Z,8.1
2023-01-06T13:14:42.101Z,9.0
2023-01-06T13:15:37.057Z,7.0
2023-01-06T13:16:53.602Z,8.8
2023-01-06T13:17:50.767Z,7.3
2023-01-06T13:18:42.011Z,9.5
2023-01-06T13:19:42.058Z,7.6
2023-01-06T13:20:38.538Z,7.5
2023-01-06T13:21:34.858Z,7.5
2023-01-06T13:22:42.533Z,7.6
2023-01-06T13:23:48.047Z,7.4
2023-01-06T13:24:39.092Z,8.0
2023-01-06T13:25:53.542Z,8.5
2023-01-06T13:26:57.511Z,7.6
2023-01-06T13:27:50.506Z,8.4
2023-01-06T13:28:41.505Z,10.1
2023-01-06T13:29:38.482Z,7.9
2023-01-06T13:30:52.509Z,8.3
2023-01-06T13:31:39.127Z,8.4
2023-01-06T13:32:51.957Z,8.2
2023-01-06T13:33:52.459Z,8.0
2023-01-06T13:34:42.001Z,8.5
2023-01-06T13:35:38.924Z,8.1